Time;durP1;ratioP1;P1;durP2;ratioP2;P2;SDS_P1;SDS_P2;PMS_P1;PMS_P2;Temp;Humidity;BMP_temperature;BMP_pressure;BME280_temperature;BME280_humidity;BME280_pressure;Samples;Min_cycle;Max_cycle;Signal;HPM_P1;HPM_P2
2022/12/03 00:02:18;;;;;;;;;;;;;;;;;;5086554;28;19935;-62
2022/12/03 00:04:43;;;;;;;;;;;;;;;;;;5086900;28;20308;-62
2022/12/03 00:07:08;;;;;;;;;;;;;;;;;;5089030;28;20036;-61
2022/12/03 00:09:34;;;;;;;;;;;;;;;;;;5092826;28;19924;-61
2022/12/03 00:11:59;;;;;;;;;;;;;;;;;;5091673;28;20057;-61
2022/12/03 00:14:24;;;;;;;;;;;;;;;;;;5088151;28;19928;-61
2022/12/03 00:16:50;;;;;;;;;;;;;;;;;;5090405;28;20500;-61
2022/12/03 00:19:15;;;;;;;;;;;;;;;;;;5088032;28;19932;-61
2022/12/03 00:21:40;;;;;;;;;;;;;;;;;;5085505;28;19924;-61
2022/12/03 00:24:06;;;;;;;;;;;;;;;;;;5086919;28;20390;-61
2022/12/03 00:26:31;;;;;;;;;;;;;;;;;;5091378;28;19929;-61
2022/12/03 00:28:56;;;;;;;;;;;;;;;;;;5089283;28;19924;-62
2022/12/03 00:31:22;;;;;;;;;;;;;;;;;;5090959;28;20019;-62
2022/12/03 00:33:47;;;;;;;;;;;;;;;;;;5088829;28;19924;-61
2022/12/03 00:36:13;;;;;;;;;;;;;;;;;;5092879;28;20378;-61
2022/12/03 00:38:38;;;;;;;;;;;;;;;;;;5089782;28;20306;-62
2022/12/03 00:41:03;;;;;;;;;;;;;;;;;;5088408;28;20005;-61
2022/12/03 00:43:29;;;;;;;;;;;;;;;;;;5089491;28;19931;-62
2022/12/03 00:45:54;;;;;;;;;;;;;;;;;;5088784;28;19920;-61
2022/12/03 00:48:19;;;;;;;;;;;;;;;;;;5074303;28;19920;-61
2022/12/03 00:50:44;;;;;;;;;;;;;;;;;;5090637;28;19934;-61
2022/12/03 00:53:10;;;;;;;;;;;;;;;;;;5090682;28;19928;-61
2022/12/03 00:55:35;;;;;;;;;;;;;;;;;;5093309;28;19931;-61
2022/12/03 00:58:00;;;;;;;;;;;;;;;;;;5084768;28;19963;-61
2022/12/03 01:00:25;;;;;;;;;;;;;;;;;;5086510;28;19935;-61
2022/12/03 01:02:51;;;;;;;;;;;;;;;;;;5085309;28;19924;-61
2022/12/03 01:05:17;;;;;;;;;;;;;;;;;;5077839;28;20007;-61
2022/12/03 01:07:43;;;;;;;;;;;;;;;;;;5082717;28;19970;-61
2022/12/03 01:10:09;;;;;;;;;;;;;;;;;;5094484;28;20022;-61
2022/12/03 01:12:34;;;;;;;;;;;;;;;;;;5088893;28;20765;-61
2022/12/03 01:14:59;;;;;;;;;;;;;;;;;;5085864;28;19935;-61
2022/12/03 01:17:25;;;;;;;;;;;;;;;;;;5090156;28;20020;-61
2022/12/03 01:19:51;;;;;;;;;;;;;;;;;;5081602;28;19932;-61
2022/12/03 01:22:17;;;;;;;;;;;;;;;;;;5085540;28;20295;-62
2022/12/03 01:24:42;;;;;;;;;;;;;;;;;;5085636;28;19928;-62
2022/12/03 01:27:07;;;;;;;;;;;;;;;;;;5095389;28;20313;-61
2022/12/03 01:29:32;;;;;;;;;;;;;;;;;;5086798;28;19977;-63
2022/12/03 01:32:16;;;;;;;;;;;;;;;;;;5089982;28;20403;-62
2022/12/03 01:34:45;;;;;;;;;;;;;;;;;;5084967;28;19924;-61
2022/12/03 01:37:10;;;;;;;;;;;;;;;;;;5088111;28;19928;-62
2022/12/03 01:39:36;;;;;;;;;;;;;;;;;;5088401;28;19938;-61
2022/12/03 01:42:01;;;;;;;;;;;;;;;;;;5085403;28;20275;-62
2022/12/03 01:44:28;;;;;;;;;;;;;;;;;;5085727;28;20311;-62
2022/12/03 01:46:54;;;;;;;;;;;;;;;;;;5092029;28;19963;-62
2022/12/03 01:49:23;;;;;;;;;;;;;;;;;;5091940;28;19928;-61
2022/12/03 01:51:50;;;;;;;;;;;;;;;;;;5070879;28;20471;-62
2022/12/03 01:54:18;;;;;;;;;;;;;;;;;;5092368;28;19940;-62
2022/12/03 01:56:44;;;;;;;;;;;;;;;;;;5090818;28;20295;-61
2022/12/03 01:59:12;;;;;;;;;;;;;;;;;;5087083;28;19929;-62
2022/12/03 02:01:37;;;;;;;;;;;;;;;;;;5090501;28;20012;-62
2022/12/03 02:04:03;;;;;;;;;;;;;;;;;;5082790;28;19967;-62
2022/12/03 02:06:29;;;;;;;;;;;;;;;;;;5096923;28;20027;-62
2022/12/03 02:08:58;;;;;;;;;;;;;;;;;;5091903;28;19972;-61
2022/12/03 02:11:31;;;;;;;;;;;;;;;;;;5088354;28;19935;-60
2022/12/03 02:14:02;;;;;;;;;;;;;;;;;;5088319;28;20299;-62
2022/12/03 02:16:28;;;;;;;;;;;;;;;;;;5088689;28;20490;-62
2022/12/03 02:18:53;;;;;;;;;;;;;;;;;;5085446;28;19923;-62
2022/12/03 02:21:19;;;;;;;;;;;;;;;;;;5080636;28;19980;-71
2022/12/03 02:23:50;;;;;;;;;;;;;;;;;;5083565;28;19977;-63
2022/12/03 02:26:15;;;;;;;;;;;;;;;;;;5083031;28;19935;-62
2022/12/03 02:28:41;;;;;;;;;;;;;;;;;;5084392;28;20350;-61
2022/12/03 02:31:06;;;;;;;;;;;;;;;;;;5087967;28;20294;-61
2022/12/03 02:33:31;;;;;;;;;;;;;;;;;;5090170;28;20562;-61
2022/12/03 02:35:57;;;;;;;;;;;;;;;;;;5082295;28;19928;-60
2022/12/03 02:38:23;;;;;;;;;;;;;;;;;;5084005;28;20415;-62
2022/12/03 02:40:51;;;;;;;;;;;;;;;;;;5083183;28;20374;-62
2022/12/03 02:43:18;;;;;;;;;;;;;;;;;;5083985;28;19931;-62
2022/12/03 02:45:45;;;;;;;;;;;;;;;;;;5082483;28;19927;-62
2022/12/03 02:48:10;;;;;;;;;;;;;;;;;;5060760;28;19928;-61
2022/12/03 02:50:38;;;;;;;;;;;;;;;;;;5068796;28;19932;-61
2022/12/03 02:53:08;;;;;;;;;;;;;;;;;;5070325;28;19931;-60
2022/12/03 02:55:34;;;;;;;;;;;;;;;;;;5076244;28;20272;-60
2022/12/03 02:58:00;;;;;;;;;;;;;;;;;;5080358;28;19921;-62
2022/12/03 03:00:25;;;;;;;;;;;;;;;;;;5082081;28;20023;-60
2022/12/03 03:02:50;;;;;;;;;;;;;;;;;;5079596;28;19933;-61
2022/12/03 03:05:17;;;;;;;;;;;;;;;;;;5073470;28;19924;-62
2022/12/03 03:07:43;;;;;;;;;;;;;;;;;;5073890;28;19981;-61
2022/12/03 03:10:10;;;;;;;;;;;;;;;;;;5074218;28;19928;-60
2022/12/03 03:12:35;;;;;;;;;;;;;;;;;;5076934;28;19928;-60
2022/12/03 03:15:00;;;;;;;;;;;;;;;;;;5077256;28;20379;-61
2022/12/03 03:17:26;;;;;;;;;;;;;;;;;;5080129;28;19924;-62
2022/12/03 03:19:51;;;;;;;;;;;;;;;;;;5078957;28;19978;-61
2022/12/03 03:22:17;;;;;;;;;;;;;;;;;;5078246;28;19932;-59
2022/12/03 03:24:42;;;;;;;;;;;;;;;;;;5076161;28;19924;-60
2022/12/03 03:27:08;;;;;;;;;;;;;;;;;;5075112;28;19928;-60
2022/12/03 03:29:33;;;;;;;;;;;;;;;;;;5076387;28;19932;-61
2022/12/03 03:31:59;;;;;;;;;;;;;;;;;;5078085;28;19968;-60
2022/12/03 03:34:25;;;;;;;;;;;;;;;;;;5081264;28;20705;-61
2022/12/03 03:36:51;;;;;;;;;;;;;;;;;;5079705;28;20071;-60
2022/12/03 03:39:16;;;;;;;;;;;;;;;;;;5076933;28;19969;-60
2022/12/03 03:41:43;;;;;;;;;;;;;;;;;;5083488;28;19951;-60
2022/12/03 03:44:08;;;;;;;;;;;;;;;;;;5077251;28;19975;-60
2022/12/03 03:46:34;;;;;;;;;;;;;;;;;;5080142;28;19962;-61
2022/12/03 03:49:00;;;;;;;;;;;;;;;;;;5082014;28;19984;-62
2022/12/03 03:51:25;;;;;;;;;;;;;;;;;;5079321;28;19939;-60
2022/12/03 03:53:51;;;;;;;;;;;;;;;;;;5080061;28;20011;-61
2022/12/03 03:56:17;;;;;;;;;;;;;;;;;;5080598;28;19932;-61
2022/12/03 03:58:42;;;;;;;;;;;;;;;;;;5077218;28;19929;-61
2022/12/03 04:01:08;;;;;;;;;;;;;;;;;;5066135;28;20324;-61
2022/12/03 04:03:33;;;;;;;;;;;;;;;;;;5079256;28;20019;-61
2022/12/03 04:05:59;;;;;;;;;;;;;;;;;;5076944;28;20958;-60
2022/12/03 04:08:24;;;;;;;;;;;;;;;;;;5080790;28;19967;-61
2022/12/03 04:13:33;;;;;;;;;;;;;;;;;;5075894;28;20406;-60
2022/12/03 04:15:58;;;;;;;;;;;;;;;;;;5082181;28;19925;-63
2022/12/03 04:18:42;;;;;;;;;;;;;;;;;;5100513;28;19956;-60
2022/12/03 04:23:56;;;;;;;;;;;;;;;;;;5079526;28;19935;-63
2022/12/03 04:29:05;;;;;;;;;;;;;;;;;;5075371;28;20169;-61
2022/12/03 04:36:58;;;;;;;;;;;;;;;;;;5081527;28;19934;-60
2022/12/03 04:39:23;;;;;;;;;;;;;;;;;;5078397;28;19923;-61
2022/12/03 04:41:48;;;;;;;;;;;;;;;;;;5078619;28;20547;-65
2022/12/03 04:44:32;;;;;;;;;;;;;;;;;;5075637;28;19923;-62
2022/12/03 04:46:57;;;;;;;;;;;;;;;;;;5081871;28;19925;-62
2022/12/03 04:49:23;;;;;;;;;;;;;;;;;;5081147;28;19928;-62
2022/12/03 04:51:48;;;;;;;;;;;;;;;;;;5074576;28;19920;-61
2022/12/03 04:54:14;;;;;;;;;;;;;;;;;;5083597;28;19926;-62
2022/12/03 04:56:39;;;;;;;;;;;;;;;;;;5080962;28;20394;-62
2022/12/03 04:59:04;;;;;;;;;;;;;;;;;;5081970;28;20405;-61
2022/12/03 05:01:29;;;;;;;;;;;;;;;;;;5081026;28;19974;-60
2022/12/03 05:03:55;;;;;;;;;;;;;;;;;;5087865;28;19989;-60
2022/12/03 05:06:20;;;;;;;;;;;;;;;;;;5092526;28;19919;-59
2022/12/03 05:08:45;;;;;;;;;;;;;;;;;;5089691;28;20022;-60
2022/12/03 05:11:11;;;;;;;;;;;;;;;;;;5081924;28;19938;-62
2022/12/03 05:13:36;;;;;;;;;;;;;;;;;;5091320;28;19923;-61
2022/12/03 05:16:01;;;;;;;;;;;;;;;;;;5087308;28;19963;-61
2022/12/03 05:18:26;;;;;;;;;;;;;;;;;;5086014;28;19927;-61
2022/12/03 05:20:52;;;;;;;;;;;;;;;;;;5081084;28;20414;-60
2022/12/03 05:23:17;;;;;;;;;;;;;;;;;;5085119;28;19928;-61
2022/12/03 05:25:42;;;;;;;;;;;;;;;;;;5079595;28;20272;-61
2022/12/03 05:28:08;;;;;;;;;;;;;;;;;;5086860;28;20053;-60
2022/12/03 05:30:33;;;;;;;;;;;;;;;;;;5090047;28;19924;-61
2022/12/03 05:32:59;;;;;;;;;;;;;;;;;;5084167;28;19928;-60
2022/12/03 05:35:24;;;;;;;;;;;;;;;;;;5086361;28;20395;-61
2022/12/03 05:37:49;;;;;;;;;;;;;;;;;;5086222;28;19932;-60
2022/12/03 05:40:15;;;;;;;;;;;;;;;;;;5084010;28;20009;-60
2022/12/03 05:42:52;;;;;;;;;;;;;;;;;;5081559;28;19936;-60
2022/12/03 05:45:18;;;;;;;;;;;;;;;;;;5087184;28;19931;-59
2022/12/03 05:47:43;;;;;;;;;;;;;;;;;;5089106;28;19932;-60
2022/12/03 05:50:09;;;;;;;;;;;;;;;;;;5093957;28;19923;-60
2022/12/03 05:52:34;;;;;;;;;;;;;;;;;;5081649;28;19942;-59
2022/12/03 05:54:59;;;;;;;;;;;;;;;;;;5083768;28;19954;-59
2022/12/03 05:57:25;;;;;;;;;;;;;;;;;;5088639;28;19939;-59
2022/12/03 05:59:50;;;;;;;;;;;;;;;;;;5083446;28;19977;-59
2022/12/03 06:02:15;;;;;;;;;;;;;;;;;;5083899;28;19939;-60
2022/12/03 06:04:40;;;;;;;;;;;;;;;;;;5087578;28;19924;-59
2022/12/03 06:07:06;;;;;;;;;;;;;;;;;;5091660;28;20014;-59
2022/12/03 06:09:31;;;;;;;;;;;;;;;;;;5089131;28;19924;-59
2022/12/03 06:11:56;;;;;;;;;;;;;;;;;;5085247;28;19952;-60
2022/12/03 06:14:22;;;;;;;;;;;;;;;;;;5090354;28;20019;-60
2022/12/03 06:16:47;;;;;;;;;;;;;;;;;;5087961;28;19928;-61
2022/12/03 06:19:12;;;;;;;;;;;;;;;;;;5080162;28;19968;-60
2022/12/03 06:21:37;;;;;;;;;;;;;;;;;;5084244;28;19928;-61
2022/12/03 06:24:03;;;;;;;;;;;;;;;;;;5086328;28;19970;-60
2022/12/03 06:26:29;;;;;;;;;;;;;;;;;;5093485;28;20287;-60
2022/12/03 06:28:54;;;;;;;;;;;;;;;;;;5089676;28;19985;-59
2022/12/03 06:31:19;;;;;;;;;;;;;;;;;;5087075;28;20512;-60
2022/12/03 06:33:45;;;;;;;;;;;;;;;;;;5084892;28;20487;-61
2022/12/03 06:36:10;;;;;;;;;;;;;;;;;;5084536;28;19926;-60
2022/12/03 06:38:35;;;;;;;;;;;;;;;;;;5090193;28;19932;-60
2022/12/03 06:41:00;;;;;;;;;;;;;;;;;;5089560;28;20332;-59
2022/12/03 06:43:26;;;;;;;;;;;;;;;;;;5087241;28;19928;-59
2022/12/03 06:45:51;;;;;;;;;;;;;;;;;;5089721;28;20319;-59
2022/12/03 06:48:17;;;;;;;;;;;;;;;;;;5090065;28;19972;-60
2022/12/03 06:50:42;;;;;;;;;;;;;;;;;;5088861;28;19923;-57
2022/12/03 06:53:07;;;;;;;;;;;;;;;;;;5084537;28;20462;-59
2022/12/03 06:55:32;;;;;;;;;;;;;;;;;;5088655;28;19924;-57
2022/12/03 06:57:58;;;;;;;;;;;;;;;;;;5090872;28;20298;-58
2022/12/03 07:00:23;;;;;;;;;;;;;;;;;;5087533;28;19924;-59
2022/12/03 07:02:49;;;;;;;;;;;;;;;;;;5084748;28;19951;-59
2022/12/03 07:05:14;;;;;;;;;;;;;;;;;;5093320;28;19948;-59
2022/12/03 07:07:40;;;;;;;;;;;;;;;;;;5092995;28;20382;-63
2022/12/03 07:10:05;;;;;;;;;;;;;;;;;;5092488;28;19932;-60
2022/12/03 07:12:31;;;;;;;;;;;;;;;;;;5088200;28;19963;-58
2022/12/03 07:14:57;;;;;;;;;;;;;;;;;;5094868;28;21756;-59
2022/12/03 07:17:22;;;;;;;;;;;;;;;;;;5076466;28;19944;-59
2022/12/03 07:19:47;;;;;;;;;;;;;;;;;;5077291;28;20463;-58
2022/12/03 07:22:12;;;;;;;;;;;;;;;;;;5092143;28;19931;-61
2022/12/03 07:24:38;;;;;;;;;;;;;;;;;;5084983;28;19920;-58
2022/12/03 07:27:03;;;;;;;;;;;;;;;;;;5083086;28;19954;-58
2022/12/03 07:29:28;;;;;;;;;;;;;;;;;;5093067;28;19932;-59
2022/12/03 07:31:53;;;;;;;;;;;;;;;;;;5090277;28;19983;-59
2022/12/03 07:34:19;;;;;;;;;;;;;;;;;;5081459;28;19935;-60
2022/12/03 07:36:44;;;;;;;;;;;;;;;;;;5084555;28;20019;-59
2022/12/03 07:39:10;;;;;;;;;;;;;;;;;;5083154;28;19924;-60
2022/12/03 07:41:35;;;;;;;;;;;;;;;;;;5090268;28;19932;-60
2022/12/03 07:44:00;;;;;;;;;;;;;;;;;;5087102;28;19925;-60
2022/12/03 07:46:26;;;;;;;;;;;;;;;;;;5085843;28;19955;-60
2022/12/03 07:48:51;;;;;;;;;;;;;;;;;;5091855;28;20712;-59
2022/12/03 07:51:16;;;;;;;;;;;;;;;;;;5093108;28;19935;-59
2022/12/03 07:53:42;;;;;;;;;;;;;;;;;;5091091;28;19935;-56
2022/12/03 07:56:07;;;;;;;;;;;;;;;;;;5087851;28;19924;-59
2022/12/03 07:58:32;;;;;;;;;;;;;;;;;;5084217;28;19970;-56
2022/12/03 08:00:58;;;;;;;;;;;;;;;;;;5083088;28;20077;-60
2022/12/03 08:03:23;;;;;;;;;;;;;;;;;;5086737;28;19924;-59
2022/12/03 08:05:49;;;;;;;;;;;;;;;;;;5096104;28;19955;-60
2022/12/03 08:08:14;;;;;;;;;;;;;;;;;;5092368;28;19950;-58
2022/12/03 08:10:39;;;;;;;;;;;;;;;;;;5089107;28;20592;-61
2022/12/03 08:13:15;;;;;;;;;;;;;;;;;;5082322;28;20089;-59
2022/12/03 08:15:40;;;;;;;;;;;;;;;;;;5082702;28;19943;-59
2022/12/03 08:18:12;;;;;;;;;;;;;;;;;;5085896;28;19947;-61
2022/12/03 08:20:39;;;;;;;;;;;;;;;;;;5089563;28;19935;-58
2022/12/03 08:23:21;;;;;;;;;;;;;;;;;;5091167;28;20035;-63
2022/12/03 08:25:47;;;;;;;;;;;;;;;;;;5086197;28;19928;-59
2022/12/03 08:28:12;;;;;;;;;;;;;;;;;;5090386;28;19928;-57
2022/12/03 08:30:38;;;;;;;;;;;;;;;;;;5083509;28;19936;-61
2022/12/03 08:33:15;;;;;;;;;;;;;;;;;;5086085;28;20421;-60
2022/12/03 08:35:42;;;;;;;;;;;;;;;;;;5087592;28;19928;-57
2022/12/03 08:38:09;;;;;;;;;;;;;;;;;;5086563;28;19924;-59
2022/12/03 08:40:36;;;;;;;;;;;;;;;;;;5084825;28;19939;-59
2022/12/03 08:43:06;;;;;;;;;;;;;;;;;;5084208;28;20319;-59
2022/12/03 08:45:38;;;;;;;;;;;;;;;;;;5090470;28;19928;-60
2022/12/03 08:48:22;;;;;;;;;;;;;;;;;;5079251;28;20383;-59
2022/12/03 08:50:48;;;;;;;;;;;;;;;;;;5078219;28;19935;-59
2022/12/03 08:53:32;;;;;;;;;;;;;;;;;;5085539;28;19928;-59
2022/12/03 08:56:02;;;;;;;;;;;;;;;;;;5079617;28;19928;-60
2022/12/03 08:58:38;;;;;;;;;;;;;;;;;;5082717;28;19928;-57
2022/12/03 09:01:09;;;;;;;;;;;;;;;;;;5084633;28;20385;-60
2022/12/03 09:03:35;;;;;;;;;;;;;;;;;;5085600;28;19934;-59
2022/12/03 09:06:00;;;;;;;;;;;;;;;;;;5086116;28;19936;-60
2022/12/03 09:08:26;;;;;;;;;;;;;;;;;;5090118;28;19931;-60
2022/12/03 09:10:51;;;;;;;;;;;;;;;;;;5087721;28;19924;-59
2022/12/03 09:13:16;;;;;;;;;;;;;;;;;;5080046;28;20379;-59
2022/12/03 09:15:41;;;;;;;;;;;;;;;;;;5076595;28;19924;-58
2022/12/03 09:18:07;;;;;;;;;;;;;;;;;;5079082;28;19959;-58
2022/12/03 09:20:32;;;;;;;;;;;;;;;;;;5091179;28;19932;-58
2022/12/03 09:22:57;;;;;;;;;;;;;;;;;;5089959;28;19928;-59
2022/12/03 09:25:22;;;;;;;;;;;;;;;;;;5086965;28;19924;-59
2022/12/03 09:27:48;;;;;;;;;;;;;;;;;;5090463;28;20064;-60
2022/12/03 09:30:14;;;;;;;;;;;;;;;;;;5090985;28;19920;-59
2022/12/03 09:32:39;;;;;;;;;;;;;;;;;;5102072;28;19930;-59
2022/12/03 09:35:05;;;;;;;;;;;;;;;;;;5087807;28;20451;-60
2022/12/03 09:37:30;;;;;;;;;;;;;;;;;;5102489;28;19924;-58
2022/12/03 09:39:55;;;;;;;;;;;;;;;;;;5090885;28;19928;-59
2022/12/03 09:42:21;;;;;;;;;;;;;;;;;;5092072;28;19928;-60
2022/12/03 09:44:46;;;;;;;;;;;;;;;;;;5092372;28;19925;-60
2022/12/03 09:47:12;;;;;;;;;;;;;;;;;;5085113;28;20579;-59
2022/12/03 09:49:37;;;;;;;;;;;;;;;;;;5087130;28;19982;-60
2022/12/03 09:52:04;;;;;;;;;;;;;;;;;;5087716;28;20001;-58
2022/12/03 09:54:30;;;;;;;;;;;;;;;;;;5084101;28;20015;-59
2022/12/03 09:56:56;;;;;;;;;;;;;;;;;;5079678;28;19999;-60
2022/12/03 09:59:23;;;;;;;;;;;;;;;;;;5088446;28;19940;-57
2022/12/03 10:01:48;;;;;;;;;;;;;;;;;;5084652;28;20038;-60
2022/12/03 10:04:13;;;;;;;;;;;;;;;;;;5093940;28;20010;-60
2022/12/03 10:06:39;;;;;;;;;;;;;;;;;;5086848;28;19923;-61
2022/12/03 10:09:05;;;;;;;;;;;;;;;;;;5099087;28;19944;-58
2022/12/03 10:11:31;;;;;;;;;;;;;;;;;;5087608;28;20331;-58
2022/12/03 10:13:57;;;;;;;;;;;;;;;;;;5081074;28;20035;-59
2022/12/03 10:16:23;;;;;;;;;;;;;;;;;;5089322;28;20287;-62
2022/12/03 10:18:50;;;;;;;;;;;;;;;;;;5089919;28;19926;-59
2022/12/03 10:21:18;;;;;;;;;;;;;;;;;;5092481;28;19973;-59
2022/12/03 10:23:44;;;;;;;;;;;;;;;;;;5087221;28;20018;-59
2022/12/03 10:26:09;;;;;;;;;;;;;;;;;;5085711;28;19931;-60
2022/12/03 10:28:36;;;;;;;;;;;;;;;;;;5085808;28;19931;-58
2022/12/03 10:31:03;;;;;;;;;;;;;;;;;;5087428;28;19970;-59
2022/12/03 10:33:29;;;;;;;;;;;;;;;;;;5096649;28;20378;-58
2022/12/03 10:35:54;;;;;;;;;;;;;;;;;;5081988;28;19928;-62
2022/12/03 10:38:21;;;;;;;;;;;;;;;;;;5086905;28;20436;-60
2022/12/03 10:40:46;;;;;;;;;;;;;;;;;;5083787;28;20034;-61
2022/12/03 10:43:18;;;;;;;;;;;;;;;;;;5082380;28;20357;-60
2022/12/03 10:46:02;;;;;;;;;;;;;;;;;;5075294;28;20250;-57
2022/12/03 10:48:27;;;;;;;;;;;;;;;;;;5083766;28;20006;-61
2022/12/03 10:51:00;;;;;;;;;;;;;;;;;;5078796;28;20015;-57
2022/12/03 10:53:27;;;;;;;;;;;;;;;;;;5082173;28;19935;-60
2022/12/03 10:55:58;;;;;;;;;;;;;;;;;;5081129;28;19924;-60
2022/12/03 10:58:24;;;;;;;;;;;;;;;;;;5085535;28;20019;-60
2022/12/03 11:00:50;;;;;;;;;;;;;;;;;;5084587;28;20421;-61
2022/12/03 11:03:17;;;;;;;;;;;;;;;;;;5090332;28;19957;-59
2022/12/03 11:05:42;;;;;;;;;;;;;;;;;;5084545;28;19931;-61
2022/12/03 11:08:14;;;;;;;;;;;;;;;;;;5086034;28;20298;-66
2022/12/03 11:10:39;;;;;;;;;;;;;;;;;;5079809;28;20031;-66
2022/12/03 11:13:23;;;;;;;;;;;;;;;;;;5082048;28;20055;-65
2022/12/03 11:15:48;;;;;;;;;;;;;;;;;;5084083;28;19969;-62
2022/12/03 11:18:32;;;;;;;;;;;;;;;;;;5089478;28;19927;-62
2022/12/03 11:21:00;;;;;;;;;;;;;;;;;;5089078;28;20372;-65
2022/12/03 11:23:44;;;;;;;;;;;;;;;;;;5083932;28;19939;-67
2022/12/03 11:26:14;;;;;;;;;;;;;;;;;;5080255;28;20428;-60
2022/12/03 11:28:45;;;;;;;;;;;;;;;;;;5086548;28;20374;-63
2022/12/03 11:31:29;;;;;;;;;;;;;;;;;;5079855;28;19935;-61
2022/12/03 11:34:21;;;;;;;;;;;;;;;;;;5076126;28;19921;-60
2022/12/03 11:37:05;;;;;;;;;;;;;;;;;;5061320;28;20389;-61
2022/12/03 11:39:51;;;;;;;;;;;;;;;;;;5089304;28;20425;-61
2022/12/03 11:42:25;;;;;;;;;;;;;;;;;;5081175;28;20388;-61
2022/12/03 11:45:02;;;;;;;;;;;;;;;;;;5086570;27;19964;-61
2022/12/03 11:47:28;;;;;;;;;;;;;;;;;;5082072;28;19924;-64
2022/12/03 11:49:54;;;;;;;;;;;;;;;;;;5085872;28;19932;-66
2022/12/03 11:52:22;;;;;;;;;;;;;;;;;;5082130;28;19928;-65
2022/12/03 11:54:49;;;;;;;;;;;;;;;;;;5083712;28;19925;-64
2022/12/03 11:57:34;;;;;;;;;;;;;;;;;;5094364;28;19963;-61
2022/12/03 12:00:03;;;;;;;;;;;;;;;;;;5080802;28;20412;-59
2022/12/03 12:02:28;;;;;;;;;;;;;;;;;;5089133;28;20237;-61
2022/12/03 12:04:54;;;;;;;;;;;;;;;;;;5087438;28;20023;-60
2022/12/03 12:07:35;;;;;;;;;;;;;;;;;;5087335;28;19935;-63
2022/12/03 12:10:00;;;;;;;;;;;;;;;;;;5087656;28;20012;-65
2022/12/03 12:12:30;;;;;;;;;;;;;;;;;;5093690;28;20334;-67
2022/12/03 12:14:56;;;;;;;;;;;;;;;;;;5077912;28;20578;-68
2022/12/03 12:17:28;;;;;;;;;;;;;;;;;;5086189;28;19924;-69
2022/12/03 12:20:09;;;;;;;;;;;;;;;;;;5089563;28;19929;-69
2022/12/03 12:22:34;;;;;;;;;;;;;;;;;;5087662;28;20018;-68
2022/12/03 12:25:01;;;;;;;;;;;;;;;;;;5090194;28;20018;-69
2022/12/03 12:27:31;;;;;;;;;;;;;;;;;;5091061;28;20383;-70
2022/12/03 12:30:04;;;;;;;;;;;;;;;;;;5086736;28;19928;-68
2022/12/03 12:32:37;;;;;;;;;;;;;;;;;;5104050;28;19931;-68
2022/12/03 12:35:14;;;;;;;;;;;;;;;;;;5086133;28;19939;-68
2022/12/03 12:38:03;;;;;;;;;;;;;;;;;;5095243;28;19999;-68
2022/12/03 12:40:29;;;;;;;;;;;;;;;;;;5082252;28;19935;-68
2022/12/03 12:42:56;;;;;;;;;;;;;;;;;;5089797;28;19966;-69
2022/12/03 12:45:23;;;;;;;;;;;;;;;;;;5082882;28;19920;-69
2022/12/03 12:47:54;;;;;;;;;;;;;;;;;;5091090;28;20307;-69
2022/12/03 12:50:20;;;;;;;;;;;;;;;;;;5083759;28;19932;-69
2022/12/03 12:52:47;;;;;;;;;;;;;;;;;;5088254;28;19932;-69
2022/12/03 12:55:13;;;;;;;;;;;;;;;;;;5080936;28;20612;-67
2022/12/03 12:57:38;;;;;;;;;;;;;;;;;;5087260;28;19954;-69
2022/12/03 13:00:04;;;;;;;;;;;;;;;;;;5091732;28;19931;-69
2022/12/03 13:02:30;;;;;;;;;;;;;;;;;;5084447;28;19987;-67
2022/12/03 13:04:55;;;;;;;;;;;;;;;;;;5094271;28;19939;-68
2022/12/03 13:07:21;;;;;;;;;;;;;;;;;;5083366;28;19924;-69
2022/12/03 13:09:50;;;;;;;;;;;;;;;;;;5082392;28;19928;-67
2022/12/03 13:12:18;;;;;;;;;;;;;;;;;;5088412;28;19920;-67
2022/12/03 13:14:44;;;;;;;;;;;;;;;;;;5085227;28;19928;-68
2022/12/03 13:17:23;;;;;;;;;;;;;;;;;;5087826;28;20032;-68
2022/12/03 13:19:49;;;;;;;;;;;;;;;;;;5083045;28;20280;-67
2022/12/03 13:22:15;;;;;;;;;;;;;;;;;;5086689;28;20019;-68
2022/12/03 13:24:51;;;;;;;;;;;;;;;;;;5087935;28;19923;-68
2022/12/03 13:27:16;;;;;;;;;;;;;;;;;;5083025;28;19948;-69
2022/12/03 13:29:42;;;;;;;;;;;;;;;;;;5088363;28;20036;-69
2022/12/03 13:32:13;;;;;;;;;;;;;;;;;;5081882;28;19959;-69
2022/12/03 13:34:39;;;;;;;;;;;;;;;;;;5081081;28;19947;-69
2022/12/03 13:37:24;;;;;;;;;;;;;;;;;;5088830;28;19931;-69
2022/12/03 13:39:56;;;;;;;;;;;;;;;;;;5081420;28;19968;-69
2022/12/03 13:42:41;;;;;;;;;;;;;;;;;;5089215;28;19921;-69
2022/12/03 13:45:12;;;;;;;;;;;;;;;;;;5085211;28;19945;-69
2022/12/03 13:47:37;;;;;;;;;;;;;;;;;;5102172;28;20426;-68
2022/12/03 13:50:11;;;;;;;;;;;;;;;;;;5082369;28;20011;-69
2022/12/03 13:52:36;;;;;;;;;;;;;;;;;;5086216;28;19928;-69
2022/12/03 13:55:02;;;;;;;;;;;;;;;;;;5082710;28;20007;-69
2022/12/03 13:57:27;;;;;;;;;;;;;;;;;;5092279;28;20440;-55
2022/12/03 13:59:52;;;;;;;;;;;;;;;;;;5087940;28;20307;-54
2022/12/03 14:02:18;;;;;;;;;;;;;;;;;;5090318;28;19969;-61
2022/12/03 14:04:43;;;;;;;;;;;;;;;;;;5090490;28;19931;-60
2022/12/03 14:07:08;;;;;;;;;;;;;;;;;;5091708;28;19939;-69
2022/12/03 14:09:33;;;;;;;;;;;;;;;;;;5088540;28;19985;-69
2022/12/03 14:14:56;;;;;;;;;;;;;;;;;;5062596;28;19928;-69
2022/12/03 14:17:21;;;;;;;;;;;;;;;;;;5081513;28;20406;-70
2022/12/03 14:19:47;;;;;;;;;;;;;;;;;;5089977;28;20027;-69
2022/12/03 14:22:12;;;;;;;;;;;;;;;;;;5093317;28;19935;-69
2022/12/03 14:24:38;;;;;;;;;;;;;;;;;;5089787;28;19924;-68
2022/12/03 14:27:04;;;;;;;;;;;;;;;;;;5085807;28;19939;-69
2022/12/03 14:29:30;;;;;;;;;;;;;;;;;;5086014;28;19928;-69
2022/12/03 14:31:55;;;;;;;;;;;;;;;;;;5086902;28;20007;-68
2022/12/03 14:34:20;;;;;;;;;;;;;;;;;;5081702;28;19971;-69
2022/12/03 14:36:45;;;;;;;;;;;;;;;;;;5091169;28;19952;-68
2022/12/03 14:39:11;;;;;;;;;;;;;;;;;;5085521;28;20681;-69
2022/12/03 14:44:23;;;;;;;;;;;;;;;;;;5088636;28;19935;-67
2022/12/03 14:46:48;;;;;;;;;;;;;;;;;;5086555;28;20267;-68
2022/12/03 14:49:14;;;;;;;;;;;;;;;;;;5078951;28;19934;-68
2022/12/03 14:51:39;;;;;;;;;;;;;;;;;;5082882;28;20023;-71
2022/12/03 14:54:04;;;;;;;;;;;;;;;;;;5080313;28;20275;-68
2022/12/03 14:56:30;;;;;;;;;;;;;;;;;;5088887;28;19932;-70
2022/12/03 14:58:55;;;;;;;;;;;;;;;;;;5086222;28;19959;-68
2022/12/03 15:01:20;;;;;;;;;;;;;;;;;;5087639;28;20023;-61
2022/12/03 15:03:46;;;;;;;;;;;;;;;;;;5086393;28;20639;-61
2022/12/03 15:06:11;;;;;;;;;;;;;;;;;;5090771;28;19920;-61
2022/12/03 15:08:36;;;;;;;;;;;;;;;;;;5098857;28;20642;-61
2022/12/03 15:11:02;;;;;;;;;;;;;;;;;;5083058;28;20027;-61
2022/12/03 15:13:28;;;;;;;;;;;;;;;;;;5088072;28;19989;-61
2022/12/03 15:15:53;;;;;;;;;;;;;;;;;;5089930;28;20338;-63
2022/12/03 15:18:18;;;;;;;;;;;;;;;;;;5087771;28;20022;-62
2022/12/03 15:20:43;;;;;;;;;;;;;;;;;;5088945;28;20314;-63
2022/12/03 15:23:09;;;;;;;;;;;;;;;;;;5090508;28;20293;-64
2022/12/03 15:25:34;;;;;;;;;;;;;;;;;;5084954;28;19931;-58
2022/12/03 15:28:01;;;;;;;;;;;;;;;;;;5090961;28;19928;-59
2022/12/03 15:30:27;;;;;;;;;;;;;;;;;;5088597;28;19920;-57
2022/12/03 15:32:52;;;;;;;;;;;;;;;;;;5084037;28;19930;-58
2022/12/03 15:35:17;;;;;;;;;;;;;;;;;;5088567;28;20370;-58
2022/12/03 15:37:43;;;;;;;;;;;;;;;;;;5091727;28;19924;-61
2022/12/03 15:40:09;;;;;;;;;;;;;;;;;;5095045;28;19923;-59
2022/12/03 15:42:34;;;;;;;;;;;;;;;;;;5091851;28;20006;-60
2022/12/03 15:44:59;;;;;;;;;;;;;;;;;;5089372;28;19931;-61
2022/12/03 15:47:24;;;;;;;;;;;;;;;;;;5093822;28;19982;-61
2022/12/03 15:49:50;;;;;;;;;;;;;;;;;;5084819;28;20283;-61
2022/12/03 15:52:15;;;;;;;;;;;;;;;;;;5088908;28;19939;-60
2022/12/03 15:54:40;;;;;;;;;;;;;;;;;;5092406;28;19923;-61
2022/12/03 15:57:06;;;;;;;;;;;;;;;;;;5091830;28;19938;-60
2022/12/03 15:59:31;;;;;;;;;;;;;;;;;;5094565;28;19970;-60
2022/12/03 16:01:56;;;;;;;;;;;;;;;;;;5093500;28;19928;-59
2022/12/03 16:04:21;;;;;;;;;;;;;;;;;;5095543;28;19934;-61
2022/12/03 16:06:47;;;;;;;;;;;;;;;;;;5095548;28;20401;-61
2022/12/03 16:09:12;;;;;;;;;;;;;;;;;;5091153;28;19927;-61
2022/12/03 16:11:37;;;;;;;;;;;;;;;;;;5084197;28;20371;-61
2022/12/03 16:14:02;;;;;;;;;;;;;;;;;;5086408;28;19985;-59
2022/12/03 16:16:28;;;;;;;;;;;;;;;;;;5080508;28;20650;-62
2022/12/03 16:18:53;;;;;;;;;;;;;;;;;;5090960;28;19927;-60
2022/12/03 16:21:18;;;;;;;;;;;;;;;;;;5092822;28;19946;-59
2022/12/03 16:23:44;;;;;;;;;;;;;;;;;;5085159;28;19924;-64
2022/12/03 16:26:09;;;;;;;;;;;;;;;;;;5084367;28;19924;-61
2022/12/03 16:28:34;;;;;;;;;;;;;;;;;;5085573;28;20387;-61
2022/12/03 16:30:59;;;;;;;;;;;;;;;;;;5082439;28;19920;-60
2022/12/03 16:33:25;;;;;;;;;;;;;;;;;;5086740;28;20100;-61
2022/12/03 16:35:50;;;;;;;;;;;;;;;;;;5089132;28;19935;-59
2022/12/03 16:38:15;;;;;;;;;;;;;;;;;;5086157;28;19932;-59
2022/12/03 16:40:40;;;;;;;;;;;;;;;;;;5088610;28;19924;-60
2022/12/03 16:43:08;;;;;;;;;;;;;;;;;;5085173;28;20394;-60
2022/12/03 16:48:17;;;;;;;;;;;;;;;;;;5083790;28;20436;-61
2022/12/03 16:50:42;;;;;;;;;;;;;;;;;;5084781;28;20026;-59
2022/12/03 16:53:08;;;;;;;;;;;;;;;;;;5083646;28;20298;-60
2022/12/03 16:55:33;;;;;;;;;;;;;;;;;;5091250;28;19939;-60
2022/12/03 16:57:58;;;;;;;;;;;;;;;;;;5085877;28;19928;-59
2022/12/03 17:00:24;;;;;;;;;;;;;;;;;;5084909;28;19928;-61
2022/12/03 17:02:50;;;;;;;;;;;;;;;;;;5085306;28;19928;-59
2022/12/03 17:05:15;;;;;;;;;;;;;;;;;;5087454;28;19935;-60
2022/12/03 17:07:40;;;;;;;;;;;;;;;;;;5088037;28;20383;-60